sensor_id;sensor_type;location;lat;lon;timestamp;temperature;humidity
75489;HTU21D;64069;46.396;48.102;2023-09-19T00:02:03;13.04;82.62
75489;HTU21D;64069;46.396;48.102;2023-09-19T00:04:35;13.01;82.81
75489;HTU21D;64069;46.396;48.102;2023-09-19T00:07:05;13.00;82.86
75489;HTU21D;64069;46.396;48.102;2023-09-19T00:09:31;12.96;82.95
75489;HTU21D;64069;46.396;48.102;2023-09-19T00:12:07;12.95;83.07
75489;HTU21D;64069;46.396;48.102;2023-09-19T00:14:34;12.89;83.19
75489;HTU21D;64069;46.396;48.102;2023-09-19T00:17:02;12.90;83.37
75489;HTU21D;64069;46.396;48.102;2023-09-19T00:19:34;12.90;83.46
75489;HTU21D;64069;46.396;48.102;2023-09-19T00:22:01;12.94;83.49
75489;HTU21D;64069;46.396;48.102;2023-09-19T00:24:27;12.95;83.49
75489;HTU21D;64069;46.396;48.102;2023-09-19T00:26:56;12.99;83.49
75489;HTU21D;64069;46.396;48.102;2023-09-19T00:29:25;13.00;83.55
75489;HTU21D;64069;46.396;48.102;2023-09-19T00:31:55;12.96;83.65
75489;HTU21D;64069;46.396;48.102;2023-09-19T00:34:22;12.94;83.79
75489;HTU21D;64069;46.396;48.102;2023-09-19T00:36:51;12.93;83.94
75489;HTU21D;64069;46.396;48.102;2023-09-19T00:39:19;12.90;84.05
75489;HTU21D;64069;46.396;48.102;2023-09-19T00:41:46;12.88;84.19
75489;HTU21D;64069;46.396;48.102;2023-09-19T00:44:12;12.86;84.30
75489;HTU21D;64069;46.396;48.102;2023-09-19T00:46:37;12.87;84.40
75489;HTU21D;64069;46.396;48.102;2023-09-19T00:49:04;12.89;84.44
75489;HTU21D;64069;46.396;48.102;2023-09-19T00:51:30;12.89;84.48
75489;HTU21D;64069;46.396;48.102;2023-09-19T00:53:55;12.86;84.59
75489;HTU21D;64069;46.396;48.102;2023-09-19T00:56:22;12.87;84.71
75489;HTU21D;64069;46.396;48.102;2023-09-19T00:58:48;12.89;84.72
75489;HTU21D;64069;46.396;48.102;2023-09-19T01:01:14;12.91;84.74
75489;HTU21D;64069;46.396;48.102;2023-09-19T01:03:42;12.95;84.76
75489;HTU21D;64069;46.396;48.102;2023-09-19T01:06:08;12.99;84.71
75489;HTU21D;64069;46.396;48.102;2023-09-19T01:08:35;13.02;84.76
75489;HTU21D;64069;46.396;48.102;2023-09-19T01:13:50;12.99;85.12
75489;HTU21D;64069;46.396;48.102;2023-09-19T01:16:29;13.00;85.09
75489;HTU21D;64069;46.396;48.102;2023-09-19T01:22:04;13.00;85.18
75489;HTU21D;64069;46.396;48.102;2023-09-19T01:25:01;13.01;85.21
75489;HTU21D;64069;46.396;48.102;2023-09-19T01:27:45;13.03;85.19
75489;HTU21D;64069;46.396;48.102;2023-09-19T01:30:22;13.03;85.16
75489;HTU21D;64069;46.396;48.102;2023-09-19T01:32:54;13.00;85.37
75489;HTU21D;64069;46.396;48.102;2023-09-19T01:35:20;13.03;85.50
75489;HTU21D;64069;46.396;48.102;2023-09-19T01:37:46;13.08;85.45
75489;HTU21D;64069;46.396;48.102;2023-09-19T01:40:13;13.09;85.46
75489;HTU21D;64069;46.396;48.102;2023-09-19T01:47:52;13.11;85.67
75489;HTU21D;64069;46.396;48.102;2023-09-19T01:50:34;13.09;85.87
75489;HTU21D;64069;46.396;48.102;2023-09-19T01:53:27;13.07;85.99
75489;HTU21D;64069;46.396;48.102;2023-09-19T01:55:57;13.03;85.94
75489;HTU21D;64069;46.396;48.102;2023-09-19T01:58:29;13.00;86.03
75489;HTU21D;64069;46.396;48.102;2023-09-19T02:01:00;12.97;86.17
75489;HTU21D;64069;46.396;48.102;2023-09-19T02:03:26;12.93;86.32
75489;HTU21D;64069;46.396;48.102;2023-09-19T02:05:54;12.91;86.46
75489;HTU21D;64069;46.396;48.102;2023-09-19T02:08:21;12.88;86.52
75489;HTU21D;64069;46.396;48.102;2023-09-19T02:10:50;12.85;86.57
75489;HTU21D;64069;46.396;48.102;2023-09-19T02:13:17;12.79;86.67
75489;HTU21D;64069;46.396;48.102;2023-09-19T02:15:45;12.72;86.80
75489;HTU21D;64069;46.396;48.102;2023-09-19T02:18:12;12.67;86.94
75489;HTU21D;64069;46.396;48.102;2023-09-19T02:20:41;12.63;87.11
75489;HTU21D;64069;46.396;48.102;2023-09-19T02:23:09;12.57;87.24
75489;HTU21D;64069;46.396;48.102;2023-09-19T02:25:35;12.53;87.32
75489;HTU21D;64069;46.396;48.102;2023-09-19T02:28:02;12.51;87.41
75489;HTU21D;64069;46.396;48.102;2023-09-19T02:30:29;12.48;87.50
75489;HTU21D;64069;46.396;48.102;2023-09-19T02:32:55;12.48;87.54
75489;HTU21D;64069;46.396;48.102;2023-09-19T02:35:22;12.45;87.64
75489;HTU21D;64069;46.396;48.102;2023-09-19T02:37:48;12.48;87.65
75489;HTU21D;64069;46.396;48.102;2023-09-19T02:40:15;12.50;87.66
75489;HTU21D;64069;46.396;48.102;2023-09-19T02:42:55;12.61;87.73
75489;HTU21D;64069;46.396;48.102;2023-09-19T02:45:22;12.72;87.45
75489;HTU21D;64069;46.396;48.102;2023-09-19T02:47:49;12.78;87.32
75489;HTU21D;64069;46.396;48.102;2023-09-19T02:50:15;12.86;87.32
75489;HTU21D;64069;46.396;48.102;2023-09-19T02:52:43;13.00;87.33
75489;HTU21D;64069;46.396;48.102;2023-09-19T02:55:10;13.22;87.12
75489;HTU21D;64069;46.396;48.102;2023-09-19T02:57:37;13.53;86.93
75489;HTU21D;64069;46.396;48.102;2023-09-19T03:00:09;13.90;86.42
75489;HTU21D;64069;46.396;48.102;2023-09-19T03:02:36;14.19;85.71
75489;HTU21D;64069;46.396;48.102;2023-09-19T03:05:04;14.47;85.13
75489;HTU21D;64069;46.396;48.102;2023-09-19T03:07:31;14.70;84.62
75489;HTU21D;64069;46.396;48.102;2023-09-19T03:09:57;14.91;84.16
75489;HTU21D;64069;46.396;48.102;2023-09-19T03:12:23;15.12;83.71
75489;HTU21D;64069;46.396;48.102;2023-09-19T03:14:49;15.32;83.26
75489;HTU21D;64069;46.396;48.102;2023-09-19T03:17:16;15.55;82.72
75489;HTU21D;64069;46.396;48.102;2023-09-19T03:19:45;15.78;82.25
75489;HTU21D;64069;46.396;48.102;2023-09-19T03:22:14;16.02;81.82
75489;HTU21D;64069;46.396;48.102;2023-09-19T03:24:40;16.26;81.39
75489;HTU21D;64069;46.396;48.102;2023-09-19T03:27:09;16.44;81.04
75489;HTU21D;64069;46.396;48.102;2023-09-19T03:29:36;16.65;80.65
75489;HTU21D;64069;46.396;48.102;2023-09-19T03:32:04;16.86;80.29
75489;HTU21D;64069;46.396;48.102;2023-09-19T03:34:30;17.05;79.84
75489;HTU21D;64069;46.396;48.102;2023-09-19T03:36:57;17.24;79.25
75489;HTU21D;64069;46.396;48.102;2023-09-19T03:39:23;17.45;78.72
75489;HTU21D;64069;46.396;48.102;2023-09-19T03:41:49;17.63;77.84
75489;HTU21D;64069;46.396;48.102;2023-09-19T03:44:15;17.78;77.40
75489;HTU21D;64069;46.396;48.102;2023-09-19T03:46:41;17.97;76.71
75489;HTU21D;64069;46.396;48.102;2023-09-19T03:49:07;18.18;76.05
75489;HTU21D;64069;46.396;48.102;2023-09-19T03:51:34;18.27;75.29
75489;HTU21D;64069;46.396;48.102;2023-09-19T03:54:00;18.36;74.63
75489;HTU21D;64069;46.396;48.102;2023-09-19T03:56:26;18.40;74.04
75489;HTU21D;64069;46.396;48.102;2023-09-19T03:58:52;18.43;73.48
75489;HTU21D;64069;46.396;48.102;2023-09-19T04:01:18;18.40;73.09
75489;HTU21D;64069;46.396;48.102;2023-09-19T04:03:44;18.49;72.50
75489;HTU21D;64069;46.396;48.102;2023-09-19T04:06:14;18.53;72.49
75489;HTU21D;64069;46.396;48.102;2023-09-19T04:08:40;18.65;72.13
75489;HTU21D;64069;46.396;48.102;2023-09-19T04:11:07;18.83;71.70
75489;HTU21D;64069;46.396;48.102;2023-09-19T04:13:33;18.99;71.21
75489;HTU21D;64069;46.396;48.102;2023-09-19T04:15:59;19.03;71.04
75489;HTU21D;64069;46.396;48.102;2023-09-19T04:18:25;19.15;70.71
75489;HTU21D;64069;46.396;48.102;2023-09-19T04:20:52;19.38;70.42
75489;HTU21D;64069;46.396;48.102;2023-09-19T04:23:20;19.48;70.23
75489;HTU21D;64069;46.396;48.102;2023-09-19T04:25:46;19.54;69.52
75489;HTU21D;64069;46.396;48.102;2023-09-19T04:28:12;19.43;69.60
75489;HTU21D;64069;46.396;48.102;2023-09-19T04:30:38;19.38;69.78
75489;HTU21D;64069;46.396;48.102;2023-09-19T04:33:06;19.32;69.74
75489;HTU21D;64069;46.396;48.102;2023-09-19T04:35:32;19.45;69.82
75489;HTU21D;64069;46.396;48.102;2023-09-19T04:37:58;19.50;69.33
75489;HTU21D;64069;46.396;48.102;2023-09-19T04:40:24;19.62;69.42
75489;HTU21D;64069;46.396;48.102;2023-09-19T04:42:58;19.83;68.91
75489;HTU21D;64069;46.396;48.102;2023-09-19T04:45:24;19.95;68.55
75489;HTU21D;64069;46.396;48.102;2023-09-19T04:47:51;20.05;68.47
75489;HTU21D;64069;46.396;48.102;2023-09-19T04:50:16;20.35;68.20
75489;HTU21D;64069;46.396;48.102;2023-09-19T04:52:43;20.70;67.56
75489;HTU21D;64069;46.396;48.102;2023-09-19T04:55:13;20.89;67.02
75489;HTU21D;64069;46.396;48.102;2023-09-19T04:57:44;20.92;67.04
75489;HTU21D;64069;46.396;48.102;2023-09-19T05:00:12;21.13;66.91
75489;HTU21D;64069;46.396;48.102;2023-09-19T05:02:41;21.21;66.43
75489;HTU21D;64069;46.396;48.102;2023-09-19T05:05:08;21.25;66.26
75489;HTU21D;64069;46.396;48.102;2023-09-19T05:07:36;21.40;66.19
75489;HTU21D;64069;46.396;48.102;2023-09-19T05:10:03;21.79;65.56
75489;HTU21D;64069;46.396;48.102;2023-09-19T05:12:33;22.22;64.85
75489;HTU21D;64069;46.396;48.102;2023-09-19T05:15:00;22.43;64.22
75489;HTU21D;64069;46.396;48.102;2023-09-19T05:17:27;22.57;63.69
75489;HTU21D;64069;46.396;48.102;2023-09-19T05:19:53;22.76;63.32
75489;HTU21D;64069;46.396;48.102;2023-09-19T05:22:19;22.94;62.70
75489;HTU21D;64069;46.396;48.102;2023-09-19T05:24:44;23.01;61.46
75489;HTU21D;64069;46.396;48.102;2023-09-19T05:27:14;23.10;60.48
75489;HTU21D;64069;46.396;48.102;2023-09-19T05:29:45;23.09;59.96
75489;HTU21D;64069;46.396;48.102;2023-09-19T05:32:11;23.28;59.46
75489;HTU21D;64069;46.396;48.102;2023-09-19T05:34:38;23.50;58.82
75489;HTU21D;64069;46.396;48.102;2023-09-19T05:37:05;23.59;57.87
75489;HTU21D;64069;46.396;48.102;2023-09-19T05:39:34;23.60;57.64
75489;HTU21D;64069;46.396;48.102;2023-09-19T05:42:00;23.74;57.27
75489;HTU21D;64069;46.396;48.102;2023-09-19T05:44:26;23.95;56.74
75489;HTU21D;64069;46.396;48.102;2023-09-19T05:46:53;24.10;55.94
75489;HTU21D;64069;46.396;48.102;2023-09-19T05:49:22;24.26;55.91
75489;HTU21D;64069;46.396;48.102;2023-09-19T05:51:50;24.54;55.40
75489;HTU21D;64069;46.396;48.102;2023-09-19T05:54:19;24.78;54.82
75489;HTU21D;64069;46.396;48.102;2023-09-19T05:56:45;24.73;53.28
75489;HTU21D;64069;46.396;48.102;2023-09-19T05:59:18;24.40;53.43
75489;HTU21D;64069;46.396;48.102;2023-09-19T06:01:44;24.31;53.88
75489;HTU21D;64069;46.396;48.102;2023-09-19T06:04:10;24.42;53.71
75489;HTU21D;64069;46.396;48.102;2023-09-19T06:06:36;24.65;53.11
75489;HTU21D;64069;46.396;48.102;2023-09-19T06:09:06;24.89;52.16
75489;HTU21D;64069;46.396;48.102;2023-09-19T06:11:35;24.93;51.66
75489;HTU21D;64069;46.396;48.102;2023-09-19T06:14:02;25.01;51.21
75489;HTU21D;64069;46.396;48.102;2023-09-19T06:16:29;24.95;50.93
75489;HTU21D;64069;46.396;48.102;2023-09-19T06:18:55;25.00;50.27
75489;HTU21D;64069;46.396;48.102;2023-09-19T06:21:22;24.98;50.14
75489;HTU21D;64069;46.396;48.102;2023-09-19T06:23:49;25.00;50.09
75489;HTU21D;64069;46.396;48.102;2023-09-19T06:26:15;24.94;50.05
75489;HTU21D;64069;46.396;48.102;2023-09-19T06:28:41;25.05;49.73
75489;HTU21D;64069;46.396;48.102;2023-09-19T06:31:08;25.19;49.55
75489;HTU21D;64069;46.396;48.102;2023-09-19T06:33:38;25.30;48.50
75489;HTU21D;64069;46.396;48.102;2023-09-19T06:36:06;25.21;48.66
75489;HTU21D;64069;46.396;48.102;2023-09-19T06:38:32;25.46;48.63
75489;HTU21D;64069;46.396;48.102;2023-09-19T06:41:02;25.68;48.21
75489;HTU21D;64069;46.396;48.102;2023-09-19T06:43:33;25.84;48.05
75489;HTU21D;64069;46.396;48.102;2023-09-19T06:46:02;25.94;47.21
75489;HTU21D;64069;46.396;48.102;2023-09-19T06:48:29;25.96;47.30
75489;HTU21D;64069;46.396;48.102;2023-09-19T06:50:58;25.99;46.32
75489;HTU21D;64069;46.396;48.102;2023-09-19T06:53:28;26.09;46.53
75489;HTU21D;64069;46.396;48.102;2023-09-19T06:55:57;26.26;46.35
75489;HTU21D;64069;46.396;48.102;2023-09-19T06:58:23;26.20;45.90
75489;HTU21D;64069;46.396;48.102;2023-09-19T07:00:49;26.12;45.87
75489;HTU21D;64069;46.396;48.102;2023-09-19T07:03:19;25.98;45.68
75489;HTU21D;64069;46.396;48.102;2023-09-19T07:05:49;25.80;45.27
75489;HTU21D;64069;46.396;48.102;2023-09-19T07:08:15;25.93;45.31
75489;HTU21D;64069;46.396;48.102;2023-09-19T07:10:42;26.08;45.03
75489;HTU21D;64069;46.396;48.102;2023-09-19T07:13:15;26.28;44.44
75489;HTU21D;64069;46.396;48.102;2023-09-19T07:15:43;26.37;44.23
75489;HTU21D;64069;46.396;48.102;2023-09-19T07:18:14;26.36;43.94
75489;HTU21D;64069;46.396;48.102;2023-09-19T07:20:44;26.50;43.42
75489;HTU21D;64069;46.396;48.102;2023-09-19T07:23:21;26.43;43.31
75489;HTU21D;64069;46.396;48.102;2023-09-19T07:25:48;26.43;43.61
75489;HTU21D;64069;46.396;48.102;2023-09-19T07:28:16;26.51;42.48
75489;HTU21D;64069;46.396;48.102;2023-09-19T07:30:42;26.43;42.25
75489;HTU21D;64069;46.396;48.102;2023-09-19T07:33:08;26.38;41.44
75489;HTU21D;64069;46.396;48.102;2023-09-19T07:35:37;26.31;41.38
75489;HTU21D;64069;46.396;48.102;2023-09-19T07:38:07;26.23;40.71
75489;HTU21D;64069;46.396;48.102;2023-09-19T07:40:33;26.27;39.90
75489;HTU21D;64069;46.396;48.102;2023-09-19T07:42:59;26.24;39.67
75489;HTU21D;64069;46.396;48.102;2023-09-19T07:45:31;26.22;39.16
75489;HTU21D;64069;46.396;48.102;2023-09-19T07:47:57;26.18;38.98
75489;HTU21D;64069;46.396;48.102;2023-09-19T07:50:23;26.22;38.94
75489;HTU21D;64069;46.396;48.102;2023-09-19T07:52:52;26.53;38.74
75489;HTU21D;64069;46.396;48.102;2023-09-19T07:55:20;26.72;37.85
75489;HTU21D;64069;46.396;48.102;2023-09-19T07:57:49;26.83;37.91
75489;HTU21D;64069;46.396;48.102;2023-09-19T08:00:15;26.78;37.92
75489;HTU21D;64069;46.396;48.102;2023-09-19T08:02:42;26.84;37.91
75489;HTU21D;64069;46.396;48.102;2023-09-19T08:05:10;26.86;37.17
75489;HTU21D;64069;46.396;48.102;2023-09-19T08:07:43;26.72;36.59
75489;HTU21D;64069;46.396;48.102;2023-09-19T08:10:09;26.38;37.23
75489;HTU21D;64069;46.396;48.102;2023-09-19T08:12:40;26.35;37.05
75489;HTU21D;64069;46.396;48.102;2023-09-19T08:15:16;26.43;37.09
75489;HTU21D;64069;46.396;48.102;2023-09-19T08:17:42;26.57;36.72
75489;HTU21D;64069;46.396;48.102;2023-09-19T08:20:09;26.73;36.62
75489;HTU21D;64069;46.396;48.102;2023-09-19T08:22:52;26.82;35.82
75489;HTU21D;64069;46.396;48.102;2023-09-19T08:25:22;26.83;35.60
75489;HTU21D;64069;46.396;48.102;2023-09-19T08:27:49;26.94;35.29
75489;HTU21D;64069;46.396;48.102;2023-09-19T08:30:29;26.93;35.21
75489;HTU21D;64069;46.396;48.102;2023-09-19T08:33:02;26.96;34.64
75489;HTU21D;64069;46.396;48.102;2023-09-19T08:35:32;26.95;34.50
75489;HTU21D;64069;46.396;48.102;2023-09-19T08:37:58;27.04;34.62
75489;HTU21D;64069;46.396;48.102;2023-09-19T08:40:26;27.24;34.41
75489;HTU21D;64069;46.396;48.102;2023-09-19T08:42:56;27.60;33.98
75489;HTU21D;64069;46.396;48.102;2023-09-19T08:45:23;27.90;33.44
75489;HTU21D;64069;46.396;48.102;2023-09-19T08:51:00;27.96;33.34
75489;HTU21D;64069;46.396;48.102;2023-09-19T08:53:54;27.75;32.38
75489;HTU21D;64069;46.396;48.102;2023-09-19T08:56:26;27.16;32.58
75489;HTU21D;64069;46.396;48.102;2023-09-19T08:59:03;26.63;32.84
75489;HTU21D;64069;46.396;48.102;2023-09-19T09:01:42;26.63;33.12
75489;HTU21D;64069;46.396;48.102;2023-09-19T09:04:12;26.78;32.48
75489;HTU21D;64069;46.396;48.102;2023-09-19T09:06:39;26.90;32.15
75489;HTU21D;64069;46.396;48.102;2023-09-19T09:09:07;27.12;31.65
75489;HTU21D;64069;46.396;48.102;2023-09-19T09:11:35;27.34;31.76
75489;HTU21D;64069;46.396;48.102;2023-09-19T09:14:06;27.50;31.61
75489;HTU21D;64069;46.396;48.102;2023-09-19T09:16:33;27.64;31.28
75489;HTU21D;64069;46.396;48.102;2023-09-19T09:19:00;27.58;31.36
75489;HTU21D;64069;46.396;48.102;2023-09-19T09:21:27;27.41;31.40
75489;HTU21D;64069;46.396;48.102;2023-09-19T09:23:55;27.10;31.64
75489;HTU21D;64069;46.396;48.102;2023-09-19T09:26:42;26.84;32.06
75489;HTU21D;64069;46.396;48.102;2023-09-19T09:29:09;26.90;32.26
75489;HTU21D;64069;46.396;48.102;2023-09-19T09:31:35;26.84;32.32
75489;HTU21D;64069;46.396;48.102;2023-09-19T09:34:03;26.75;32.40
75489;HTU21D;64069;46.396;48.102;2023-09-19T09:36:40;26.71;32.32
75489;HTU21D;64069;46.396;48.102;2023-09-19T09:39:07;26.69;32.54
75489;HTU21D;64069;46.396;48.102;2023-09-19T09:41:50;26.92;32.58
75489;HTU21D;64069;46.396;48.102;2023-09-19T09:44:18;27.21;32.17
75489;HTU21D;64069;46.396;48.102;2023-09-19T09:46:49;27.49;31.31
75489;HTU21D;64069;46.396;48.102;2023-09-19T09:49:27;27.55;30.98
75489;HTU21D;64069;46.396;48.102;2023-09-19T09:54:59;27.49;30.51
75489;HTU21D;64069;46.396;48.102;2023-09-19T09:57:27;27.30;30.15
75489;HTU21D;64069;46.396;48.102;2023-09-19T09:59:57;27.07;30.31
75489;HTU21D;64069;46.396;48.102;2023-09-19T10:02:36;26.82;30.55
75489;HTU21D;64069;46.396;48.102;2023-09-19T10:05:19;26.65;30.77
75489;HTU21D;64069;46.396;48.102;2023-09-19T10:07:47;26.49;30.87
75489;HTU21D;64069;46.396;48.102;2023-09-19T10:10:30;26.35;31.13
75489;HTU21D;64069;46.396;48.102;2023-09-19T10:13:12;26.28;31.72
75489;HTU21D;64069;46.396;48.102;2023-09-19T10:15:40;26.25;32.24
75489;HTU21D;64069;46.396;48.102;2023-09-19T10:18:21;26.28;31.95
75489;HTU21D;64069;46.396;48.102;2023-09-19T10:20:49;26.55;31.83
75489;HTU21D;64069;46.396;48.102;2023-09-19T10:23:20;26.86;31.49
75489;HTU21D;64069;46.396;48.102;2023-09-19T10:25:50;27.10;31.41
75489;HTU21D;64069;46.396;48.102;2023-09-19T10:28:18;27.25;31.16
75489;HTU21D;64069;46.396;48.102;2023-09-19T10:30:50;27.34;31.40
75489;HTU21D;64069;46.396;48.102;2023-09-19T10:33:21;27.36;31.41
75489;HTU21D;64069;46.396;48.102;2023-09-19T10:35:50;27.41;31.22
75489;HTU21D;64069;46.396;48.102;2023-09-19T10:38:43;27.56;30.75
75489;HTU21D;64069;46.396;48.102;2023-09-19T10:41:14;27.69;30.46
75489;HTU21D;64069;46.396;48.102;2023-09-19T10:43:43;27.60;30.45
75489;HTU21D;64069;46.396;48.102;2023-09-19T10:46:14;27.60;31.49
75489;HTU21D;64069;46.396;48.102;2023-09-19T10:48:42;27.64;30.96
75489;HTU21D;64069;46.396;48.102;2023-09-19T10:51:24;27.68;30.55
75489;HTU21D;64069;46.396;48.102;2023-09-19T10:53:59;27.73;30.07
75489;HTU21D;64069;46.396;48.102;2023-09-19T10:56:31;27.80;29.55
75489;HTU21D;64069;46.396;48.102;2023-09-19T10:59:11;27.76;29.06
75489;HTU21D;64069;46.396;48.102;2023-09-19T11:01:52;27.70;29.29
75489;HTU21D;64069;46.396;48.102;2023-09-19T11:04:32;27.68;29.32
75489;HTU21D;64069;46.396;48.102;2023-09-19T11:15:11;27.31;29.61
75489;HTU21D;64069;46.396;48.102;2023-09-19T11:17:59;27.25;29.42
75489;HTU21D;64069;46.396;48.102;2023-09-19T11:20:29;27.23;28.85
75489;HTU21D;64069;46.396;48.102;2023-09-19T11:25:44;27.31;28.81
75489;HTU21D;64069;46.396;48.102;2023-09-19T11:28:34;27.39;29.25
75489;HTU21D;64069;46.396;48.102;2023-09-19T11:34:42;27.32;29.55
75489;HTU21D;64069;46.396;48.102;2023-09-19T11:40:11;26.99;29.67
75489;HTU21D;64069;46.396;48.102;2023-09-19T11:42:48;27.04;29.84
75489;HTU21D;64069;46.396;48.102;2023-09-19T11:48:24;27.11;29.28
75489;HTU21D;64069;46.396;48.102;2023-09-19T11:50:53;27.09;29.59
75489;HTU21D;64069;46.396;48.102;2023-09-19T11:53:21;26.98;29.57
75489;HTU21D;64069;46.396;48.102;2023-09-19T11:55:49;26.97;29.80
75489;HTU21D;64069;46.396;48.102;2023-09-19T11:58:19;27.00;29.80
75489;HTU21D;64069;46.396;48.102;2023-09-19T12:00:54;26.97;29.85
75489;HTU21D;64069;46.396;48.102;2023-09-19T12:03:29;26.92;30.03
75489;HTU21D;64069;46.396;48.102;2023-09-19T12:05:58;26.94;30.75
75489;HTU21D;64069;46.396;48.102;2023-09-19T12:08:26;26.86;30.57
75489;HTU21D;64069;46.396;48.102;2023-09-19T12:10:53;26.81;30.15
75489;HTU21D;64069;46.396;48.102;2023-09-19T12:13:22;26.78;29.96
75489;HTU21D;64069;46.396;48.102;2023-09-19T12:15:53;26.79;29.98
75489;HTU21D;64069;46.396;48.102;2023-09-19T12:18:29;26.78;29.94
75489;HTU21D;64069;46.396;48.102;2023-09-19T12:20:57;26.83;29.73
75489;HTU21D;64069;46.396;48.102;2023-09-19T12:23:24;26.86;29.11
75489;HTU21D;64069;46.396;48.102;2023-09-19T12:25:54;26.90;28.72
75489;HTU21D;64069;46.396;48.102;2023-09-19T12:28:26;26.91;29.21
75489;HTU21D;64069;46.396;48.102;2023-09-19T12:30:53;26.94;29.42
75489;HTU21D;64069;46.396;48.102;2023-09-19T12:33:21;26.98;29.69
75489;HTU21D;64069;46.396;48.102;2023-09-19T12:35:52;26.98;29.62
75489;HTU21D;64069;46.396;48.102;2023-09-19T12:38:28;26.92;29.63
75489;HTU21D;64069;46.396;48.102;2023-09-19T12:41:01;26.83;29.19
75489;HTU21D;64069;46.396;48.102;2023-09-19T12:43:32;26.81;29.39
75489;HTU21D;64069;46.396;48.102;2023-09-19T12:46:00;26.80;29.71
75489;HTU21D;64069;46.396;48.102;2023-09-19T12:48:28;26.82;30.16
75489;HTU21D;64069;46.396;48.102;2023-09-19T12:51:17;26.76;30.48
75489;HTU21D;64069;46.396;48.102;2023-09-19T12:53:57;26.64;30.96
75489;HTU21D;64069;46.396;48.102;2023-09-19T12:56:23;26.57;31.28
75489;HTU21D;64069;46.396;48.102;2023-09-19T12:58:56;26.53;30.99
75489;HTU21D;64069;46.396;48.102;2023-09-19T13:01:25;26.48;30.52
75489;HTU21D;64069;46.396;48.102;2023-09-19T13:04:14;26.42;30.38
75489;HTU21D;64069;46.396;48.102;2023-09-19T13:06:50;26.36;30.35
75489;HTU21D;64069;46.396;48.102;2023-09-19T13:09:19;26.24;30.69
75489;HTU21D;64069;46.396;48.102;2023-09-19T13:11:47;26.13;30.66
75489;HTU21D;64069;46.396;48.102;2023-09-19T13:14:24;26.06;30.19
75489;HTU21D;64069;46.396;48.102;2023-09-19T13:17:05;25.96;29.98
75489;HTU21D;64069;46.396;48.102;2023-09-19T13:19:44;25.87;30.59
75489;HTU21D;64069;46.396;48.102;2023-09-19T13:22:40;25.79;30.67
75489;HTU21D;64069;46.396;48.102;2023-09-19T13:25:29;25.74;31.02
75489;HTU21D;64069;46.396;48.102;2023-09-19T13:27:59;25.68;31.26
75489;HTU21D;64069;46.396;48.102;2023-09-19T13:30:27;25.59;32.06
75489;HTU21D;64069;46.396;48.102;2023-09-19T13:33:10;25.45;32.06
75489;HTU21D;64069;46.396;48.102;2023-09-19T13:35:39;25.32;32.80
75489;HTU21D;64069;46.396;48.102;2023-09-19T13:38:07;25.21;33.25
75489;HTU21D;64069;46.396;48.102;2023-09-19T13:40:38;25.06;33.92
75489;HTU21D;64069;46.396;48.102;2023-09-19T13:43:08;24.92;34.48
75489;HTU21D;64069;46.396;48.102;2023-09-19T13:45:35;24.78;35.05
75489;HTU21D;64069;46.396;48.102;2023-09-19T13:48:02;24.66;35.56
75489;HTU21D;64069;46.396;48.102;2023-09-19T13:50:29;24.51;36.16
75489;HTU21D;64069;46.396;48.102;2023-09-19T13:52:55;24.40;36.74
75489;HTU21D;64069;46.396;48.102;2023-09-19T13:55:21;24.26;37.42
75489;HTU21D;64069;46.396;48.102;2023-09-19T13:57:48;24.16;37.74
75489;HTU21D;64069;46.396;48.102;2023-09-19T14:00:23;24.03;38.08
75489;HTU21D;64069;46.396;48.102;2023-09-19T14:02:50;23.94;38.28
75489;HTU21D;64069;46.396;48.102;2023-09-19T14:05:16;23.83;38.53
75489;HTU21D;64069;46.396;48.102;2023-09-19T14:07:44;23.72;38.79
75489;HTU21D;64069;46.396;48.102;2023-09-19T14:10:12;23.61;39.26
75489;HTU21D;64069;46.396;48.102;2023-09-19T14:12:39;23.49;39.20
75489;HTU21D;64069;46.396;48.102;2023-09-19T14:15:08;23.41;38.94
75489;HTU21D;64069;46.396;48.102;2023-09-19T14:17:35;23.31;38.82
75489;HTU21D;64069;46.396;48.102;2023-09-19T14:20:01;23.25;38.64
75489;HTU21D;64069;46.396;48.102;2023-09-19T14:22:31;23.17;39.18
75489;HTU21D;64069;46.396;48.102;2023-09-19T14:24:57;23.05;39.52
75489;HTU21D;64069;46.396;48.102;2023-09-19T14:27:26;22.91;40.48
75489;HTU21D;64069;46.396;48.102;2023-09-19T14:29:53;22.75;41.47
75489;HTU21D;64069;46.396;48.102;2023-09-19T14:32:19;22.61;42.42
75489;HTU21D;64069;46.396;48.102;2023-09-19T14:34:46;22.44;43.58
75489;HTU21D;64069;46.396;48.102;2023-09-19T14:37:13;22.27;44.94
75489;HTU21D;64069;46.396;48.102;2023-09-19T14:39:40;22.10;46.21
75489;HTU21D;64069;46.396;48.102;2023-09-19T14:42:11;21.92;47.16
75489;HTU21D;64069;46.396;48.102;2023-09-19T14:44:38;21.74;48.28
75489;HTU21D;64069;46.396;48.102;2023-09-19T14:47:04;21.59;49.33
75489;HTU21D;64069;46.396;48.102;2023-09-19T14:49:35;21.42;50.47
75489;HTU21D;64069;46.396;48.102;2023-09-19T14:52:04;21.24;51.22
75489;HTU21D;64069;46.396;48.102;2023-09-19T14:54:30;21.07;52.06
75489;HTU21D;64069;46.396;48.102;2023-09-19T14:56:56;20.91;52.75
75489;HTU21D;64069;46.396;48.102;2023-09-19T14:59:31;20.75;53.99
75489;HTU21D;64069;46.396;48.102;2023-09-19T15:01:57;20.58;54.97
75489;HTU21D;64069;46.396;48.102;2023-09-19T15:04:24;20.43;55.71
75489;HTU21D;64069;46.396;48.102;2023-09-19T15:06:52;20.28;56.51
75489;HTU21D;64069;46.396;48.102;2023-09-19T15:09:24;20.10;57.06
75489;HTU21D;64069;46.396;48.102;2023-09-19T15:11:55;19.97;55.67
75489;HTU21D;64069;46.396;48.102;2023-09-19T15:14:23;19.84;56.81
75489;HTU21D;64069;46.396;48.102;2023-09-19T15:16:50;19.73;57.62
75489;HTU21D;64069;46.396;48.102;2023-09-19T15:19:16;19.65;58.87
75489;HTU21D;64069;46.396;48.102;2023-09-19T15:21:43;19.56;59.86
75489;HTU21D;64069;46.396;48.102;2023-09-19T15:24:09;19.45;60.22
75489;HTU21D;64069;46.396;48.102;2023-09-19T15:26:36;19.36;60.49
75489;HTU21D;64069;46.396;48.102;2023-09-19T15:29:06;19.27;60.76
75489;HTU21D;64069;46.396;48.102;2023-09-19T15:31:33;19.18;61.15
75489;HTU21D;64069;46.396;48.102;2023-09-19T15:33:59;19.08;61.61
75489;HTU21D;64069;46.396;48.102;2023-09-19T15:36:26;18.97;61.98
75489;HTU21D;64069;46.396;48.102;2023-09-19T15:39:03;18.87;62.95
75489;HTU21D;64069;46.396;48.102;2023-09-19T15:41:36;18.74;63.35
75489;HTU21D;64069;46.396;48.102;2023-09-19T15:44:16;18.62;63.95
75489;HTU21D;64069;46.396;48.102;2023-09-19T15:46:42;18.49;64.08
75489;HTU21D;64069;46.396;48.102;2023-09-19T15:49:09;18.44;64.83
75489;HTU21D;64069;46.396;48.102;2023-09-19T15:51:35;18.41;65.31
75489;HTU21D;64069;46.396;48.102;2023-09-19T15:54:11;18.40;65.81
75489;HTU21D;64069;46.396;48.102;2023-09-19T15:56:43;18.32;65.81